Time;durP1;ratioP1;P1;durP2;ratioP2;P2;SDS_P1;SDS_P2;PMS_P1;PMS_P2;Temp;Humidity;BMP_temperature;BMP_pressure;BME280_temperature;BME280_humidity;BME280_pressure;Samples;Min_cycle;Max_cycle;Signal;HPM_P1;HPM_P2
2024/01/30 00:01:46;;;;;;;15.03;11.00;;;7.70;90.60;;;9.22;60.75;102669.25;3081934;46;20451;-73
2024/01/30 00:04:16;;;;;;;13.10;11.13;;;7.60;90.60;;;9.23;60.23;102668.31;3082020;46;20524;-73
2024/01/30 00:06:45;;;;;;;11.83;10.30;;;7.60;90.60;;;9.21;60.36;102672.84;3082094;46;20456;-72
2024/01/30 00:09:14;;;;;;;14.13;10.07;;;7.60;90.60;;;9.20;60.58;102675.63;3081305;46;20472;-73
2024/01/30 00:11:42;;;;;;;12.47;10.63;;;7.60;90.60;;;9.18;60.41;102675.72;3081453;46;20453;-73
2024/01/30 00:14:10;;;;;;;11.60;9.17;;;7.60;90.70;;;9.17;60.42;102670.59;3081750;46;20459;-73
2024/01/30 00:16:39;;;;;;;12.30;10.43;;;7.60;90.70;;;9.19;60.55;102668.69;3081989;46;20552;-73
2024/01/30 00:19:08;;;;;;;14.60;11.07;;;7.60;90.80;;;9.20;60.29;102665.09;3081097;46;20440;-73
2024/01/30 00:21:36;;;;;;;13.70;10.50;;;7.60;90.90;;;9.20;60.66;102663.28;3082148;46;20475;-73
2024/01/30 00:24:05;;;;;;;13.20;10.50;;;7.60;90.80;;;9.20;60.56;102671.16;3081822;46;20439;-74
2024/01/30 00:26:33;;;;;;;13.17;10.30;;;7.60;90.70;;;9.19;60.56;102668.69;3081840;46;20427;-73
2024/01/30 00:29:02;;;;;;;13.07;10.40;;;7.60;90.80;;;9.20;60.53;102662.47;3080480;46;21196;-73
2024/01/30 00:31:30;;;;;;;12.30;9.93;;;7.60;90.80;;;9.18;60.68;102662.56;3081533;46;20432;-73
2024/01/30 00:33:59;;;;;;;13.20;10.90;;;7.60;90.80;;;9.18;60.42;102656.47;3081531;46;20580;-72
2024/01/30 00:36:30;;;;;;;12.03;9.97;;;7.60;90.80;;;9.16;60.45;102664.50;3081579;46;20512;-72
2024/01/30 00:38:58;;;;;;;13.17;10.17;;;7.60;90.70;;;9.12;60.46;102664.84;3081092;46;20464;-73
2024/01/30 00:41:26;;;;;;;14.07;10.57;;;7.60;90.70;;;9.08;60.59;102671.28;3081740;46;20427;-73
2024/01/30 00:43:55;;;;;;;12.00;10.00;;;7.50;90.70;;;9.04;60.66;102668.06;3081498;46;20600;-73
2024/01/30 00:46:23;;;;;;;13.33;10.50;;;7.50;90.60;;;9.03;60.59;102669.03;3080726;46;20557;-73
2024/01/30 00:48:51;;;;;;;16.60;10.93;;;7.50;90.70;;;9.00;60.37;102669.25;3081261;46;20440;-73
2024/01/30 00:51:20;;;;;;;12.83;10.50;;;7.50;90.70;;;8.99;60.66;102662.31;3081487;46;20463;-74
2024/01/30 00:53:48;;;;;;;13.23;11.07;;;7.40;90.80;;;9.00;60.66;102653.50;3081645;46;20460;-73
2024/01/30 00:56:18;;;;;;;13.87;10.37;;;7.40;91.00;;;9.01;60.93;102654.34;3081324;46;20999;-73
2024/01/30 00:58:46;;;;;;;11.77;9.77;;;7.40;91.00;;;9.01;60.80;102654.34;3080923;46;20462;-73
2024/01/30 01:01:15;;;;;;;13.63;9.67;;;7.40;90.90;;;9.01;60.80;102651.72;3081660;46;20432;-73
2024/01/30 01:03:43;;;;;;;14.17;10.53;;;7.40;91.00;;;9.02;61.03;102651.59;3081119;46;20525;-73
2024/01/30 01:06:12;;;;;;;14.77;10.10;;;7.40;91.10;;;9.04;60.50;102649.66;3081355;46;20473;-73
2024/01/30 01:08:40;;;;;;;15.20;10.07;;;7.40;91.00;;;9.06;60.90;102646.91;3080685;46;20443;-73
2024/01/30 01:11:09;;;;;;;13.73;10.63;;;7.40;91.00;;;9.06;60.61;102642.50;3081241;46;21072;-73
2024/01/30 01:13:37;;;;;;;11.40;10.20;;;7.40;91.00;;;9.05;60.50;102648.72;3081140;46;20564;-73
2024/01/30 01:16:06;;;;;;;15.17;10.07;;;7.40;90.90;;;9.02;60.90;102646.31;3081232;46;20430;-73
2024/01/30 01:18:35;;;;;;;13.43;9.57;;;7.40;90.90;;;9.00;60.77;102640.34;3081004;46;20482;-73
2024/01/30 01:21:04;;;;;;;13.73;10.70;;;7.40;90.90;;;8.99;60.72;102640.47;3081302;46;20529;-73
2024/01/30 01:23:33;;;;;;;11.90;9.23;;;7.40;91.00;;;8.98;60.65;102631.78;3080858;46;20566;-72
2024/01/30 01:26:01;;;;;;;13.27;10.23;;;7.40;90.90;;;8.98;60.67;102634.41;3080939;46;20517;-72
2024/01/30 01:28:29;;;;;;;13.20;10.40;;;7.40;91.00;;;8.95;60.81;102629.38;3080389;46;20467;-73
2024/01/30 01:31:04;;;;;;;13.43;10.00;;;7.30;90.90;;;8.93;60.78;102633.06;3080790;46;20432;-73
2024/01/30 01:33:33;;;;;;;13.17;10.53;;;7.30;91.00;;;8.91;61.10;102632.34;3081023;46;20432;-72
2024/01/30 01:36:02;;;;;;;11.60;10.20;;;7.30;91.10;;;8.89;61.08;102624.56;3080791;46;20427;-73
2024/01/30 01:38:31;;;;;;;12.53;9.33;;;7.30;91.10;;;8.88;61.17;102628.16;3080329;46;20439;-72
2024/01/30 01:40:59;;;;;;;11.70;9.60;;;7.30;91.50;;;8.88;61.36;102617.66;3080937;46;20517;-73
2024/01/30 01:43:27;;;;;;;10.70;9.43;;;7.30;91.30;;;8.88;61.32;102612.41;3080702;46;20487;-73
2024/01/30 01:45:56;;;;;;;11.97;9.77;;;7.30;91.40;;;8.85;61.66;102612.63;3080244;46;20588;-73
2024/01/30 01:48:25;;;;;;;13.27;9.80;;;7.20;91.50;;;8.85;62.11;102607.38;3079709;46;20467;-73
2024/01/30 01:50:54;;;;;;;14.13;10.07;;;7.30;91.60;;;8.85;61.88;102607.38;3081796;46;20431;-73
2024/01/30 01:53:22;;;;;;;12.17;10.10;;;7.30;91.60;;;8.83;62.40;102611.91;3083313;46;20427;-73
2024/01/30 01:55:52;;;;;;;12.93;9.73;;;7.30;91.70;;;8.81;62.64;102611.22;3082941;46;21090;-73
2024/01/30 01:58:23;;;;;;;11.47;9.43;;;7.30;91.90;;;8.82;62.79;102618.13;3082646;46;20459;-73
2024/01/30 02:00:52;;;;;;;13.37;9.87;;;7.30;92.00;;;8.82;63.02;102610.25;3082412;46;20446;-73
2024/01/30 02:03:21;;;;;;;12.90;10.37;;;7.30;92.10;;;8.80;63.26;102612.16;3082353;46;20426;-73
2024/01/30 02:05:51;;;;;;;11.03;9.93;;;7.30;92.20;;;8.79;63.19;102610.50;3082385;46;20432;-73
2024/01/30 02:08:20;;;;;;;12.17;9.50;;;7.30;92.20;;;8.78;63.48;102611.44;3081836;46;20475;-73
2024/01/30 02:10:48;;;;;;;14.67;9.77;;;7.40;92.30;;;8.78;63.63;102606.19;3083049;46;20431;-73
2024/01/30 02:13:17;;;;;;;13.30;9.87;;;7.40;92.30;;;8.80;63.51;102609.53;3082953;46;20491;-72
2024/01/30 02:15:52;;;;;;;11.83;9.37;;;7.30;92.30;;;8.80;63.70;102599.03;3082991;46;20459;-73
2024/01/30 02:18:21;;;;;;;15.53;10.83;;;7.30;92.40;;;8.82;63.53;102602.34;3082647;46;20443;-77
2024/01/30 02:21:09;;;;;;;12.73;9.33;;;7.40;92.50;;;8.81;63.77;102600.72;3081994;46;20447;-73
2024/01/30 02:23:40;;;;;;;12.27;9.60;;;7.40;92.60;;;8.82;64.07;102591.84;3082965;46;20526;-73
2024/01/30 02:26:09;;;;;;;11.70;10.17;;;7.40;92.60;;;8.84;64.06;102588.16;3082266;46;20426;-73
2024/01/30 02:28:38;;;;;;;12.27;10.30;;;7.40;92.60;;;8.85;64.13;102586.38;3082376;46;20470;-73
2024/01/30 02:31:06;;;;;;;11.60;9.97;;;7.40;92.70;;;8.85;63.80;102589.00;3082241;46;20455;-72
2024/01/30 02:33:35;;;;;;;14.57;10.37;;;7.40;92.60;;;8.84;64.12;102589.97;3082977;46;20509;-73
2024/01/30 02:36:03;;;;;;;12.77;9.17;;;7.40;92.80;;;8.84;64.04;102582.91;3083011;46;20455;-72
2024/01/30 02:38:31;;;;;;;12.23;9.83;;;7.40;92.80;;;8.83;64.16;102572.53;3082551;46;20467;-73
2024/01/30 02:41:00;;;;;;;12.47;10.10;;;7.40;92.80;;;8.85;63.99;102566.22;3082809;46;20549;-73
2024/01/30 02:43:28;;;;;;;11.90;9.83;;;7.40;92.80;;;8.88;64.43;102570.41;3082901;46;20497;-72
2024/01/30 02:45:58;;;;;;;13.13;10.80;;;7.40;92.90;;;8.89;64.47;102568.63;3082347;46;20477;-73
2024/01/30 02:48:26;;;;;;;15.63;10.77;;;7.40;92.90;;;8.88;64.36;102564.31;3082414;46;21118;-73
2024/01/30 02:50:55;;;;;;;12.43;10.40;;;7.40;93.10;;;8.87;64.78;102562.66;3082706;46;20460;-72
2024/01/30 02:53:23;;;;;;;13.47;10.80;;;7.40;93.20;;;8.89;64.64;102563.38;3082973;46;20500;-73
2024/01/30 02:55:51;;;;;;;13.20;10.43;;;7.40;93.10;;;8.89;64.57;102561.56;3082501;46;20428;-72
2024/01/30 02:58:20;;;;;;;17.90;10.23;;;7.40;93.10;;;8.90;64.23;102559.78;3082419;46;20528;-73
2024/01/30 03:00:48;;;;;;;13.37;10.13;;;7.40;93.10;;;8.91;64.64;102558.81;3082860;46;20486;-73
2024/01/30 03:03:17;;;;;;;11.83;10.03;;;7.40;93.10;;;8.90;64.38;102552.75;3082031;46;20431;-73
2024/01/30 03:05:45;;;;;;;12.83;10.50;;;7.40;93.10;;;8.92;64.50;102558.69;3082863;46;20485;-73
2024/01/30 03:08:14;;;;;;;12.67;10.03;;;7.40;93.10;;;8.89;64.55;102555.50;3082196;46;20483;-72
2024/01/30 03:10:42;;;;;;;12.37;10.23;;;7.40;93.10;;;8.87;64.68;102550.34;3082473;46;20439;-73
2024/01/30 03:13:10;;;;;;;11.87;10.60;;;7.40;93.20;;;8.87;65.03;102552.97;3082727;46;20427;-72
2024/01/30 03:15:39;;;;;;;12.50;9.80;;;7.40;93.30;;;8.85;65.16;102560.97;3082451;46;20516;-73
2024/01/30 03:18:07;;;;;;;12.13;10.20;;;7.30;93.40;;;8.84;64.83;102548.78;3081836;46;20995;-72
2024/01/30 03:20:36;;;;;;;12.43;10.57;;;7.30;93.40;;;8.83;65.00;102543.66;3082902;46;20440;-73
2024/01/30 03:23:04;;;;;;;12.70;10.20;;;7.40;93.50;;;8.82;65.17;102544.59;3082645;46;20431;-73
2024/01/30 03:25:32;;;;;;;11.73;10.10;;;7.30;93.60;;;8.80;65.52;102536.00;3082535;46;20427;-72
2024/01/30 03:28:01;;;;;;;14.50;10.87;;;7.30;93.60;;;8.81;65.43;102535.06;3081943;46;20443;-73
2024/01/30 03:30:30;;;;;;;11.93;10.20;;;7.30;93.60;;;8.78;65.71;102537.94;3082438;46;20438;-73
2024/01/30 03:32:58;;;;;;;13.83;10.80;;;7.30;93.80;;;8.76;65.83;102534.59;3082613;46;20448;-73
2024/01/30 03:35:26;;;;;;;12.13;9.67;;;7.30;93.90;;;8.73;66.22;102529.56;3082565;46;20428;-73
2024/01/30 03:37:55;;;;;;;14.77;10.90;;;7.30;94.00;;;8.73;66.21;102540.06;3081835;46;20463;-72
2024/01/30 03:40:23;;;;;;;12.57;9.63;;;7.40;94.20;;;8.74;66.69;102536.50;3082161;46;20431;-73
2024/01/30 03:42:52;;;;;;;12.70;10.13;;;7.40;94.20;;;8.75;66.78;102532.91;3082412;46;20451;-72
2024/01/30 03:45:20;;;;;;;15.13;11.17;;;7.40;94.30;;;8.75;66.85;102527.66;3081750;46;21014;-73
2024/01/30 03:47:49;;;;;;;12.03;10.47;;;7.30;94.30;;;8.79;66.61;102524.69;3082058;46;20451;-73
2024/01/30 03:50:17;;;;;;;12.30;11.00;;;7.40;94.30;;;8.84;66.56;102521.72;3082256;46;20456;-73
2024/01/30 03:52:46;;;;;;;13.20;10.67;;;7.40;94.40;;;8.85;66.87;102526.00;3082112;46;21143;-73
2024/01/30 03:55:14;;;;;;;12.77;10.37;;;7.40;94.50;;;8.88;66.75;102523.13;3082180;46;20451;-72
2024/01/30 03:57:43;;;;;;;13.50;11.00;;;7.40;94.40;;;8.92;66.74;102521.09;3081984;46;20482;-73
2024/01/30 04:00:12;;;;;;;19.23;11.70;;;7.40;94.50;;;8.96;66.51;102526.03;3082326;46;20533;-72
2024/01/30 04:02:40;;;;;;;12.33;11.03;;;7.40;94.50;;;9.00;66.30;102521.34;3082085;46;20431;-73
2024/01/30 04:05:09;;;;;;;12.13;10.23;;;7.50;94.50;;;9.03;66.45;102527.22;3082031;46;20576;-72
2024/01/30 04:07:37;;;;;;;14.53;10.43;;;7.50;94.50;;;9.06;66.42;102526.09;3081818;46;21145;-73
2024/01/30 04:10:07;;;;;;;14.10;11.43;;;7.50;94.50;;;9.10;65.96;102522.31;3082276;46;20435;-72
2024/01/30 04:12:36;;;;;;;13.27;11.07;;;7.50;94.40;;;9.12;66.11;102521.22;3082291;46;20517;-73
2024/01/30 04:15:05;;;;;;;13.27;10.73;;;7.50;94.40;;;9.14;65.59;102529.81;3081616;46;21001;-73
2024/01/30 04:17:33;;;;;;;18.33;11.67;;;7.50;94.40;;;9.15;65.72;102520.97;3081681;46;20443;-72
2024/01/30 04:20:02;;;;;;;14.40;11.57;;;7.60;94.40;;;9.15;65.56;102520.97;3082049;46;20428;-72
2024/01/30 04:22:30;;;;;;;14.03;10.97;;;7.60;94.40;;;9.18;65.84;102525.97;3081810;46;20449;-73
2024/01/30 04:24:59;;;;;;;11.73;10.17;;;7.60;94.30;;;9.15;65.57;102526.22;3082052;46;20460;-73
2024/01/30 04:27:28;;;;;;;14.80;11.27;;;7.60;94.30;;;9.11;65.37;102519.53;3081193;46;20460;-73
2024/01/30 04:29:56;;;;;;;11.93;10.67;;;7.60;94.60;;;9.10;65.92;102517.06;3081889;46;20431;-73
2024/01/30 04:32:25;;;;;;;17.43;11.27;;;7.50;94.60;;;9.11;65.65;102524.78;3081673;46;20529;-72
2024/01/30 04:34:53;;;;;;;12.70;11.30;;;7.60;94.30;;;9.12;65.54;102515.97;3081951;46;20435;-73
2024/01/30 04:37:22;;;;;;;14.63;11.53;;;7.60;94.30;;;9.13;65.82;102512.38;3081422;46;20439;-73
2024/01/30 04:39:51;;;;;;;14.20;11.27;;;7.60;94.40;;;9.15;65.76;102512.28;3081988;46;21007;-72
2024/01/30 04:42:19;;;;;;;12.03;10.83;;;7.60;94.40;;;9.17;65.79;102508.56;3081863;46;20459;-73
2024/01/30 04:44:48;;;;;;;12.03;10.73;;;7.60;94.40;;;9.17;65.82;102507.72;3080296;46;20427;-73
2024/01/30 04:47:16;;;;;;;13.10;10.90;;;7.60;94.40;;;9.16;66.22;102506.88;3081442;46;20561;-73
2024/01/30 04:49:45;;;;;;;12.80;10.83;;;7.60;94.50;;;9.16;66.01;102509.50;3081662;46;20456;-73
2024/01/30 04:52:14;;;;;;;15.70;11.47;;;7.60;94.50;;;9.18;66.11;102494.47;3081692;46;20472;-73
2024/01/30 04:54:42;;;;;;;11.63;10.43;;;7.60;94.50;;;9.22;66.10;102501.13;3081412;46;20427;-73
2024/01/30 04:57:12;;;;;;;15.83;11.93;;;7.60;94.50;;;9.25;65.85;102505.31;3081308;46;20443;-72
2024/01/30 04:59:40;;;;;;;14.70;12.10;;;7.60;94.50;;;9.27;65.79;102503.41;3081399;46;20452;-73
2024/01/30 05:02:08;;;;;;;13.13;10.90;;;7.60;94.50;;;9.26;65.79;102492.06;3081461;46;20503;-73
2024/01/30 05:04:37;;;;;;;14.87;11.87;;;7.60;94.40;;;9.27;65.69;102498.16;3081551;46;20427;-72
2024/01/30 05:07:05;;;;;;;14.50;10.37;;;7.60;94.40;;;9.24;65.56;102499.25;3081447;46;20979;-73
2024/01/30 05:09:34;;;;;;;14.57;12.57;;;7.70;94.40;;;9.23;65.71;102505.44;3081399;46;20545;-72
2024/01/30 05:12:03;;;;;;;15.67;11.03;;;7.70;94.40;;;9.22;65.39;102495.88;3081065;46;20436;-72
2024/01/30 05:14:31;;;;;;;13.37;11.63;;;7.60;94.30;;;9.21;65.64;102488.97;3081512;46;20533;-73
2024/01/30 05:17:00;;;;;;;13.67;11.27;;;7.60;94.30;;;9.20;65.60;102489.91;3081412;46;20455;-73
2024/01/30 05:19:28;;;;;;;14.27;11.40;;;7.60;94.30;;;9.19;66.05;102490.03;3081232;46;20450;-73
2024/01/30 05:21:57;;;;;;;12.50;10.97;;;7.60;94.20;;;9.13;65.68;102490.56;3081378;46;20968;-73
2024/01/30 05:24:25;;;;;;;13.57;11.47;;;7.60;94.60;;;9.11;65.96;102488.03;3081447;46;20483;-73
2024/01/30 05:26:54;;;;;;;17.07;11.10;;;7.60;94.30;;;9.09;65.87;102479.44;3082886;46;20510;-73
2024/01/30 05:29:22;;;;;;;13.60;11.37;;;7.50;94.30;;;9.07;66.18;102483.97;3083625;46;20985;-73
2024/01/30 05:31:51;;;;;;;14.07;11.57;;;7.60;94.40;;;9.05;66.08;102488.53;3083658;46;20427;-73
2024/01/30 05:34:20;;;;;;;13.87;11.87;;;7.50;94.40;;;9.04;66.11;102486.84;3083316;46;20956;-72
2024/01/30 05:36:48;;;;;;;13.20;11.77;;;7.50;94.50;;;9.04;66.18;102486.84;3083479;46;20426;-72
2024/01/30 05:39:16;;;;;;;14.27;11.63;;;7.50;94.50;;;9.04;66.20;102486.84;3083386;46;20571;-73
2024/01/30 05:41:45;;;;;;;20.23;11.87;;;7.50;94.60;;;9.05;66.07;102478.03;3083925;46;20541;-73
2024/01/30 05:44:13;;;;;;;15.77;11.87;;;7.50;94.60;;;9.06;65.89;102477.03;3083260;46;20462;-72
2024/01/30 05:46:42;;;;;;;17.07;11.93;;;7.50;94.60;;;9.06;66.35;102468.31;3083453;46;20432;-73
2024/01/30 05:49:10;;;;;;;14.23;12.20;;;7.50;94.60;;;9.05;66.09;102483.28;3082915;46;20471;-74
2024/01/30 05:51:39;;;;;;;16.43;13.37;;;7.50;94.70;;;9.03;66.43;102485.19;3083678;46;20540;-73
2024/01/30 05:54:07;;;;;;;13.23;11.47;;;7.50;94.80;;;9.03;66.30;102468.59;3083407;46;20473;-73
2024/01/30 05:56:35;;;;;;;14.80;12.30;;;7.50;94.80;;;9.05;66.26;102478.03;3083460;46;20428;-73
2024/01/30 05:59:04;;;;;;;15.50;11.17;;;7.50;94.70;;;9.08;66.40;102472.50;3082828;46;20450;-72
2024/01/30 06:01:33;;;;;;;14.97;11.97;;;7.50;94.80;;;9.13;66.26;102474.78;3083257;46;20430;-73
2024/01/30 06:04:01;;;;;;;17.03;12.17;;;7.50;94.80;;;9.15;66.08;102484.19;3083415;46;20506;-73
2024/01/30 06:06:30;;;;;;;14.57;12.07;;;7.50;94.80;;;9.17;66.02;102484.94;3083581;46;20523;-72
2024/01/30 06:08:59;;;;;;;17.10;13.03;;;7.50;94.80;;;9.17;66.24;102484.94;3082754;46;20439;-73
2024/01/30 06:11:27;;;;;;;14.40;12.33;;;7.50;94.80;;;9.16;66.14;102488.50;3083167;46;20510;-73
2024/01/30 06:13:55;;;;;;;16.23;12.83;;;7.60;94.80;;;9.14;65.92;102494.81;3082857;46;20455;-72
2024/01/30 06:16:24;;;;;;;15.47;12.57;;;7.60;94.80;;;9.08;66.69;102487.44;3083186;46;20524;-73
2024/01/30 06:18:52;;;;;;;14.43;12.27;;;7.50;94.80;;;9.05;66.54;102488.53;3082707;46;21107;-73
2024/01/30 06:21:21;;;;;;;17.27;12.70;;;7.50;94.90;;;9.04;66.57;102486.00;3082837;46;20463;-73
2024/01/30 06:23:49;;;;;;;20.17;12.73;;;7.50;94.80;;;9.06;66.77;102479.66;3082758;46;20427;-73
2024/01/30 06:26:17;;;;;;;17.40;12.77;;;7.60;94.80;;;9.11;66.49;102485.41;3082808;46;20509;-72
2024/01/30 06:28:46;;;;;;;15.70;13.03;;;7.50;94.80;;;9.16;66.53;102479.78;3082201;46;20486;-73
2024/01/30 06:31:14;;;;;;;17.20;13.20;;;7.60;94.90;;;9.21;66.02;102478.47;3082698;46;20459;-73
2024/01/30 06:33:43;;;;;;;16.77;13.17;;;7.50;94.90;;;9.25;65.97;102473.78;3082799;46;21028;-72
2024/01/30 06:36:11;;;;;;;17.77;12.87;;;7.60;94.90;;;9.26;65.83;102478.94;3082652;46;20965;-72
2024/01/30 06:38:41;;;;;;;13.30;11.77;;;7.60;94.80;;;9.27;65.80;102482.41;3082609;46;20442;-72
2024/01/30 06:41:09;;;;;;;16.13;13.20;;;7.60;94.80;;;9.25;65.99;102473.78;3082536;46;20428;-72
2024/01/30 06:43:38;;;;;;;15.33;13.23;;;7.60;94.80;;;9.25;65.89;102469.38;3082977;46;20430;-73
2024/01/30 06:46:06;;;;;;;16.50;13.03;;;7.60;94.80;;;9.28;65.75;102465.66;3081559;46;21077;-72
2024/01/30 06:48:34;;;;;;;17.10;13.40;;;7.60;94.80;;;9.31;65.92;102468.06;3082824;46;20535;-73
2024/01/30 06:51:03;;;;;;;15.20;12.50;;;7.60;94.80;;;9.31;65.74;102466.25;3082782;46;20431;-73
2024/01/30 06:53:31;;;;;;;15.77;13.47;;;7.60;94.70;;;9.29;65.60;102464.72;3082580;46;20455;-73
2024/01/30 06:56:00;;;;;;;20.47;15.00;;;7.60;94.60;;;9.27;65.93;102471.91;3083690;46;20431;-73
2024/01/30 06:58:28;;;;;;;16.97;13.07;;;7.70;94.70;;;9.24;65.57;102472.13;3082172;46;20439;-73
2024/01/30 07:00:57;;;;;;;16.77;13.23;;;7.60;94.60;;;9.23;65.50;102473.91;3082399;46;20432;-73
2024/01/30 07:03:25;;;;;;;15.20;13.03;;;7.60;94.60;;;9.21;65.88;102473.22;3082463;46;20549;-72
2024/01/30 07:05:54;;;;;;;17.47;12.57;;;7.60;94.60;;;9.19;65.82;102469.88;3082740;46;20574;-73
2024/01/30 07:08:22;;;;;;;15.07;12.90;;;7.60;94.60;;;9.20;66.10;102461.00;3082000;46;20440;-73
2024/01/30 07:10:54;;;;;;;14.73;12.17;;;7.60;94.70;;;9.19;65.72;102459.38;3082424;46;20505;-73
2024/01/30 07:13:28;;;;;;;18.10;13.27;;;7.60;94.70;;;9.21;65.98;102461.84;3082342;46;20465;-73
2024/01/30 07:15:57;;;;;;;16.50;13.13;;;7.60;94.70;;;9.20;66.17;102466.28;3081618;46;20554;-73
2024/01/30 07:18:25;;;;;;;19.97;15.00;;;7.60;94.90;;;9.20;66.10;102466.28;3081227;46;20494;-72
2024/01/30 07:20:54;;;;;;;16.63;13.40;;;7.60;94.80;;;9.20;65.89;102471.53;3081991;46;20927;-72
2024/01/30 07:23:22;;;;;;;18.53;14.40;;;7.60;94.80;;;9.19;66.32;102463.78;3082320;46;20456;-73
2024/01/30 07:25:51;;;;;;;19.97;16.73;;;7.60;94.80;;;9.20;65.87;102465.47;3082066;46;20427;-72
2024/01/30 07:28:19;;;;;;;16.50;13.80;;;7.60;94.80;;;9.23;65.87;102466.03;3082363;46;21135;-73
2024/01/30 07:30:48;;;;;;;18.23;13.87;;;7.60;94.90;;;9.24;65.80;102459.84;3082593;46;20524;-73
2024/01/30 07:33:17;;;;;;;18.43;14.50;;;7.60;94.90;;;9.24;66.06;102467.72;3082332;46;20440;-73
2024/01/30 07:35:46;;;;;;;17.07;14.43;;;7.60;95.00;;;9.23;66.45;102466.03;3082344;46;20431;-73
2024/01/30 07:38:14;;;;;;;18.40;14.13;;;7.60;95.00;;;9.22;66.37;102456.47;3081543;46;21061;-73
2024/01/30 07:40:43;;;;;;;22.07;14.13;;;7.60;95.00;;;9.24;66.28;102451.94;3082244;46;20505;-72
2024/01/30 07:43:11;;;;;;;23.13;16.90;;;7.60;95.00;;;9.30;66.41;102443.56;3082291;46;20453;-73
2024/01/30 07:45:40;;;;;;;16.27;14.07;;;7.60;95.10;;;9.34;66.51;102437.09;3080966;46;20432;-73
2024/01/30 07:48:09;;;;;;;15.20;13.60;;;7.70;95.10;;;9.39;66.40;102439.34;3080598;46;20440;-72
2024/01/30 07:50:38;;;;;;;19.93;15.83;;;7.70;95.10;;;9.43;66.27;102436.38;3082031;46;20432;-72
2024/01/30 07:53:06;;;;;;;15.80;13.77;;;7.70;95.10;;;9.48;65.86;102441.25;3081969;46;20527;-73
2024/01/30 07:55:34;;;;;;;20.33;16.13;;;7.80;95.20;;;9.50;66.20;102434.91;3082171;46;20452;-73
2024/01/30 07:58:04;;;;;;;17.67;13.83;;;7.80;95.10;;;9.54;65.78;102428.44;3081713;46;20621;-73
2024/01/30 08:00:32;;;;;;;18.77;14.20;;;7.80;95.00;;;9.59;66.00;102435.94;3081966;46;20565;-73
2024/01/30 08:03:01;;;;;;;18.57;14.00;;;7.80;95.00;;;9.63;65.61;102437.34;3081900;46;20439;-72
2024/01/30 08:05:30;;;;;;;19.60;14.30;;;7.90;95.00;;;9.66;65.75;102441.50;3081697;46;20452;-73
2024/01/30 08:07:59;;;;;;;17.27;14.13;;;7.90;95.00;;;9.68;65.51;102436.97;3080554;46;20480;-72
2024/01/30 08:10:27;;;;;;;17.63;14.23;;;8.00;95.00;;;9.68;65.84;102444.84;3080356;46;20428;-73
2024/01/30 08:12:56;;;;;;;15.37;13.30;;;8.00;95.00;;;9.70;66.06;102448.22;3081418;46;20554;-73
2024/01/30 08:15:24;;;;;;;14.70;12.93;;;8.00;95.00;;;9.75;65.85;102446.00;3082299;46;20433;-72
2024/01/30 08:17:57;;;;;;;20.40;13.83;;;8.00;95.00;;;9.77;66.11;102449.38;3081547;46;20443;-73
2024/01/30 08:20:26;;;;;;;18.70;12.73;;;8.10;95.00;;;9.77;65.93;102444.91;3081828;46;20996;-73
2024/01/30 08:22:54;;;;;;;18.03;14.23;;;8.10;95.00;;;9.83;65.74;102440.97;3081156;46;20435;-72
2024/01/30 08:25:23;;;;;;;16.37;12.93;;;8.20;94.90;;;9.89;65.78;102440.47;3081592;46;20433;-73
2024/01/30 08:27:51;;;;;;;21.57;13.27;;;8.20;94.90;;;9.91;65.80;102443.78;3080573;43;20494;-73
2024/01/30 08:30:20;;;;;;;18.17;12.73;;;8.30;94.90;;;9.92;65.47;102442.81;3080629;46;20443;-72
2024/01/30 08:32:48;;;;;;;16.03;13.50;;;8.30;94.80;;;9.98;65.45;102444.94;3080709;46;20515;-73
2024/01/30 08:35:17;;;;;;;16.63;13.73;;;8.30;94.80;;;10.08;65.32;102438.78;3080458;46;20438;-73
2024/01/30 08:37:45;;;;;;;14.87;12.27;;;8.40;94.90;;;10.15;65.21;102447.00;3080472;46;20525;-73
2024/01/30 08:40:14;;;;;;;16.00;12.73;;;8.40;94.80;;;10.16;64.88;102451.31;3081558;46;20452;-73
2024/01/30 08:42:43;;;;;;;16.53;12.77;;;8.50;94.70;;;10.18;65.03;102449.38;3080550;46;21068;-73
2024/01/30 08:45:11;;;;;;;16.33;12.83;;;8.50;94.60;;;10.24;64.90;102438.34;3079717;46;20439;-73
2024/01/30 08:47:40;;;;;;;16.23;12.90;;;8.60;94.60;;;10.32;64.92;102441.16;3080754;43;20526;-73
2024/01/30 08:50:09;;;;;;;20.63;13.10;;;8.60;94.60;;;10.39;64.56;102437.03;3081030;46;20431;-73
2024/01/30 08:52:38;;;;;;;16.00;12.80;;;8.60;94.60;;;10.46;64.60;102443.44;3081112;46;20475;-73
2024/01/30 08:55:07;;;;;;;16.40;12.57;;;8.70;94.50;;;10.51;64.30;102438.63;3080549;46;20507;-72
2024/01/30 08:57:35;;;;;;;15.17;12.47;;;8.70;94.40;;;10.58;64.13;102441.53;3080749;46;20461;-73
2024/01/30 09:00:06;;;;;;;13.40;11.83;;;8.80;94.40;;;10.61;64.05;102442.13;3080852;46;20432;-73
2024/01/30 09:02:41;;;;;;;15.90;12.53;;;8.90;94.30;;;10.64;63.83;102436.59;3079655;46;20439;-73
2024/01/30 09:05:27;;;;;;;14.97;12.03;;;8.90;94.20;;;10.72;63.72;102436.75;3080324;46;20431;-73
2024/01/30 09:07:56;;;;;;;15.63;12.47;;;8.90;94.20;;;10.82;63.52;102434.16;3078742;46;21084;-73
2024/01/30 09:10:25;;;;;;;16.17;13.13;;;9.00;94.10;;;10.81;63.51;102433.34;3080630;46;20428;-73
2024/01/30 09:12:56;;;;;;;16.43;12.87;;;9.00;94.00;;;10.85;63.59;102434.72;3079513;44;21193;-73
2024/01/30 09:15:25;;;;;;;15.80;12.70;;;9.10;94.00;;;10.91;63.21;102440.44;3079112;46;20534;-73
2024/01/30 09:17:53;;;;;;;13.90;12.43;;;9.10;94.00;;;10.96;63.24;102441.69;3079291;46;20623;-73
2024/01/30 09:20:22;;;;;;;15.93;12.53;;;9.20;94.00;;;11.00;63.15;102452.78;3080027;46;21103;-72
2024/01/30 09:22:51;;;;;;;14.23;12.17;;;9.20;93.90;;;10.99;63.28;102445.84;3080493;46;20425;-73
2024/01/30 09:25:19;;;;;;;15.83;12.17;;;9.30;93.80;;;11.00;63.00;102452.78;3079960;46;20451;-73
2024/01/30 09:27:48;;;;;;;16.50;12.60;;;9.30;93.80;;;11.01;63.08;102444.75;3079506;43;20440;-73
2024/01/30 09:30:17;;;;;;;14.97;11.60;;;9.40;93.80;;;11.04;63.20;102451.53;3080327;46;20439;-73
2024/01/30 09:32:45;;;;;;;16.07;12.37;;;9.40;93.80;;;11.12;63.48;102441.16;3080313;46;20428;-73
2024/01/30 09:35:14;;;;;;;15.43;12.37;;;9.40;93.80;;;11.20;63.24;102443.94;3080527;46;20451;-72
2024/01/30 09:37:43;;;;;;;16.05;13.80;;;9.40;93.80;;;11.50;62.23;102441.22;3079372;43;22351;-73
2024/01/30 09:40:11;;;;;;;15.27;11.83;;;9.40;94.00;;;11.55;62.37;102439.00;3080983;46;20456;-72
2024/01/30 09:42:45;;;;;;;14.27;12.37;;;9.50;94.00;;;11.62;62.07;102439.28;3079826;46;20428;-73
2024/01/30 09:45:25;;;;;;;15.13;11.97;;;9.60;93.90;;;11.64;62.06;102437.31;3079624;46;20431;-73
2024/01/30 09:47:54;;;;;;;16.80;11.87;;;9.70;93.80;;;11.69;62.02;102422.78;3077009;46;20435;-71
2024/01/30 09:50:22;;;;;;;20.50;14.93;;;9.80;93.70;;;11.81;62.04;102424.31;3078357;46;20441;-72
2024/01/30 09:52:56;;;;;;;16.23;13.75;;;9.80;93.70;;;12.23;61.19;102430.88;3077891;46;22304;-73
2024/01/30 09:55:27;;;;;;;15.83;11.77;;;9.90;93.90;;;12.20;60.82;102441.72;3077969;46;20581;-72
2024/01/30 09:57:55;;;;;;;14.63;12.13;;;10.00;93.10;;;12.20;60.64;102431.16;3078050;43;20439;-72
2024/01/30 10:00:27;;;;;;;16.83;11.57;;;10.10;93.00;;;12.22;60.96;102428.34;3078699;46;20594;-72
2024/01/30 10:02:55;;;;;;;14.13;10.93;;;10.20;92.90;;;12.26;60.94;102428.91;3077856;46;21083;-72
2024/01/30 10:05:28;;;;;;;16.00;11.33;;;10.30;92.90;;;12.31;60.92;102421.41;3077780;46;20977;-73
2024/01/30 10:07:58;;;;;;;15.73;11.57;;;10.30;92.80;;;12.40;61.03;102431.09;3077889;43;20444;-74
2024/01/30 10:10:26;;;;;;;15.43;11.47;;;10.40;92.80;;;12.44;60.62;102432.47;3077198;46;20454;-73
2024/01/30 10:12:55;;;;;;;13.97;10.20;;;10.50;92.70;;;12.50;60.92;102437.19;3080284;46;20532;-73
2024/01/30 10:15:25;;;;;;;13.63;10.70;;;10.50;92.60;;;12.50;60.79;102427.44;3081084;46;20439;-72
2024/01/30 10:17:54;;;;;;;11.87;10.63;;;10.60;92.60;;;12.53;60.89;102428.94;3080474;46;20474;-72
2024/01/30 10:20:25;;;;;;;12.70;10.97;;;10.60;92.60;;;12.53;60.93;102434.22;3080756;46;20427;-72